createdAt,value
2018-03-25T00:01:22.047Z,0.42
2018-03-25T00:03:50.362Z,0.41
2018-03-25T00:06:18.701Z,0.43
2018-03-25T00:08:47.120Z,0.39
2018-03-25T00:11:15.460Z,0.25
2018-03-25T00:13:43.790Z,0.21
2018-03-25T00:16:12.118Z,0.16
2018-03-25T00:18:40.515Z,0.09
2018-03-25T00:21:13.123Z,0.08
2018-03-25T00:23:41.451Z,-0.02
2018-03-25T00:26:09.850Z,-0.04
2018-03-25T00:28:38.164Z,0.02
2018-03-25T00:31:06.582Z,-0.03
2018-03-25T00:33:34.926Z,-0.11
2018-03-25T00:36:03.273Z,-0.15
2018-03-25T00:38:31.706Z,-0.18
2018-03-25T00:41:00.096Z,-0.09
2018-03-25T00:43:28.438Z,-0.03
2018-03-25T00:45:56.781Z,-0.01
2018-03-25T00:48:25.171Z,0.01
2018-03-25T00:50:53.509Z,0.02
2018-03-25T00:53:21.852Z,0.01
2018-03-25T00:55:50.249Z,-0.04
2018-03-25T00:58:18.596Z,-0.12
2018-03-25T01:00:46.942Z,-0.20
2018-03-25T01:03:15.267Z,-0.22
2018-03-25T01:05:43.620Z,-0.24
2018-03-25T01:08:12.010Z,-0.31
2018-03-25T01:10:40.342Z,-0.35
2018-03-25T01:13:08.685Z,-0.36
2018-03-25T01:18:37.847Z,-0.43
2018-03-25T01:21:06.238Z,-0.39
2018-03-25T01:23:34.645Z,-0.35
2018-03-25T01:26:02.967Z,-0.41
2018-03-25T01:28:31.305Z,-0.42
2018-03-25T01:30:59.624Z,-0.39
2018-03-25T01:33:27.969Z,-0.36
2018-03-25T01:35:56.359Z,-0.42
2018-03-25T01:38:24.885Z,-0.47
2018-03-25T01:40:53.270Z,-0.53
2018-03-25T01:43:21.601Z,-0.57
2018-03-25T01:45:49.974Z,-0.54
2018-03-25T01:48:18.328Z,-0.61
2018-03-25T01:50:46.728Z,-0.61
2018-03-25T01:53:15.116Z,-0.58
2018-03-25T01:55:43.476Z,-0.52
2018-03-25T01:58:11.867Z,-0.51
2018-03-25T02:00:41.919Z,-0.52
2018-03-25T02:03:10.335Z,-0.52
2018-03-25T02:05:38.730Z,-0.60
2018-03-25T02:08:07.134Z,-0.60
2018-03-25T02:10:35.470Z,-0.62
2018-03-25T02:13:03.809Z,-0.62
2018-03-25T02:15:32.373Z,-0.63
2018-03-25T02:18:00.718Z,-0.62
2018-03-25T02:20:29.030Z,-0.64
2018-03-25T02:22:57.371Z,-0.62
2018-03-25T02:25:25.780Z,-0.63
2018-03-25T02:27:54.238Z,-0.64
2018-03-25T02:30:22.512Z,-0.68
2018-03-25T02:32:50.861Z,-0.66
2018-03-25T02:35:19.174Z,-0.66
2018-03-25T02:37:47.526Z,-0.58
2018-03-25T02:40:15.926Z,-0.57
2018-03-25T02:42:44.860Z,-0.56
2018-03-25T02:45:13.219Z,-0.57
2018-03-25T02:47:41.552Z,-0.55
2018-03-25T02:50:10.017Z,-0.57
2018-03-25T02:52:38.401Z,-0.57
2018-03-25T02:55:06.757Z,-0.56
2018-03-25T02:57:35.136Z,-0.58
2018-03-25T03:00:03.474Z,-0.61
2018-03-25T03:02:31.900Z,-0.59
2018-03-25T03:05:00.270Z,-0.63
2018-03-25T03:07:28.647Z,-0.62
2018-03-25T03:09:56.981Z,-0.64
2018-03-25T03:12:25.331Z,-0.63
2018-03-25T03:14:53.697Z,-0.61
2018-03-25T03:17:22.138Z,-0.61
2018-03-25T03:19:50.629Z,-0.52
2018-03-25T03:22:18.952Z,-0.51
2018-03-25T03:24:47.397Z,-0.49
2018-03-25T03:27:15.784Z,-0.50
2018-03-25T03:29:44.120Z,-0.50
2018-03-25T03:32:14.198Z,-0.46
2018-03-25T03:34:42.588Z,-0.45
2018-03-25T03:37:10.930Z,-0.42
2018-03-25T03:39:39.353Z,-0.39
2018-03-25T03:42:07.745Z,-0.39
2018-03-25T03:44:36.065Z,-0.36
2018-03-25T03:47:04.410Z,-0.34
2018-03-25T03:49:32.750Z,-0.36
2018-03-25T03:52:01.116Z,-0.44
2018-03-25T03:54:29.534Z,-0.48
2018-03-25T03:56:57.899Z,-0.41
2018-03-25T03:59:26.227Z,-0.39
2018-03-25T04:01:54.906Z,-0.31
2018-03-25T04:04:23.231Z,-0.27
2018-03-25T04:06:52.644Z,-0.21
2018-03-25T04:09:21.006Z,-0.19
2018-03-25T04:11:49.353Z,-0.14
2018-03-25T04:14:17.936Z,-0.12
2018-03-25T04:16:46.262Z,-0.05
2018-03-25T04:19:14.597Z,-0.07
2018-03-25T04:21:42.965Z,-0.05
2018-03-25T04:24:11.295Z,-0.04
2018-03-25T04:26:39.723Z,-0.02
2018-03-25T04:29:08.030Z,0.03
2018-03-25T04:31:36.362Z,0.06
2018-03-25T04:34:04.684Z,0.06
2018-03-25T04:36:33.005Z,0.01
2018-03-25T04:39:01.397Z,0.07
2018-03-25T04:41:29.736Z,0.14
2018-03-25T04:43:58.050Z,0.20
2018-03-25T04:46:26.391Z,0.25
2018-03-25T04:48:54.772Z,0.25
2018-03-25T04:51:23.132Z,0.33
2018-03-25T04:53:51.541Z,0.42
2018-03-25T04:56:19.870Z,0.51
2018-03-25T04:58:48.196Z,0.55
2018-03-25T05:01:16.513Z,0.58
2018-03-25T05:03:44.905Z,0.67
2018-03-25T05:06:13.212Z,0.68
2018-03-25T05:08:41.600Z,0.68
2018-03-25T05:11:09.998Z,0.69
2018-03-25T05:13:38.319Z,0.78
2018-03-25T05:16:06.655Z,0.83
2018-03-25T05:18:34.994Z,0.91
2018-03-25T05:21:03.334Z,1.08
2018-03-25T05:23:31.649Z,1.19
2018-03-25T05:25:59.968Z,1.24
2018-03-25T05:28:28.342Z,1.30
2018-03-25T05:30:56.724Z,1.38
2018-03-25T05:33:25.043Z,1.45
2018-03-25T05:35:53.417Z,1.55
2018-03-25T05:38:21.752Z,1.59
2018-03-25T05:40:50.104Z,1.69
2018-03-25T05:43:18.444Z,1.75
2018-03-25T05:45:46.762Z,1.82
2018-03-25T05:48:15.100Z,1.85
2018-03-25T05:50:43.417Z,1.91
2018-03-25T05:53:11.834Z,1.98
2018-03-25T05:55:40.227Z,2.12
2018-03-25T05:58:08.685Z,2.41
2018-03-25T06:00:37.049Z,2.74
2018-03-25T06:03:05.357Z,2.97
2018-03-25T06:05:33.695Z,3.34
2018-03-25T06:08:02.040Z,3.62
2018-03-25T06:10:30.450Z,3.59
2018-03-25T06:12:58.873Z,3.77
2018-03-25T06:15:27.253Z,3.85
2018-03-25T06:17:55.593Z,4.36
2018-03-25T06:20:24.013Z,4.37
2018-03-25T06:22:52.443Z,4.38
2018-03-25T06:25:20.840Z,4.81
2018-03-25T06:27:49.225Z,4.78
2018-03-25T06:30:17.617Z,5.06
2018-03-25T06:32:46.011Z,4.81
2018-03-25T06:35:14.340Z,4.57
2018-03-25T06:37:42.782Z,4.97
2018-03-25T06:40:11.108Z,5.13
2018-03-25T06:42:39.437Z,5.60
2018-03-25T06:45:07.861Z,5.32
2018-03-25T06:47:36.198Z,5.79
2018-03-25T06:50:04.686Z,6.00
2018-03-25T06:52:33.783Z,5.98
2018-03-25T06:55:02.416Z,6.16
2018-03-25T06:57:30.744Z,6.01
2018-03-25T06:59:59.155Z,6.37
2018-03-25T07:02:27.511Z,7.06
2018-03-25T07:04:55.904Z,6.75
2018-03-25T07:07:24.362Z,6.95
2018-03-25T07:09:52.688Z,6.62
2018-03-25T07:12:21.083Z,7.19
2018-03-25T07:14:49.698Z,7.08
2018-03-25T07:17:18.804Z,6.37
2018-03-25T07:19:47.134Z,7.02
2018-03-25T07:22:15.468Z,7.28
2018-03-25T07:24:43.897Z,7.32
2018-03-25T07:27:12.367Z,6.95
2018-03-25T07:29:40.682Z,6.67
2018-03-25T07:32:09.007Z,7.17
2018-03-25T07:34:37.436Z,6.75
2018-03-25T07:37:05.744Z,6.77
2018-03-25T07:39:34.106Z,7.16
2018-03-25T07:42:02.456Z,7.42
2018-03-25T07:44:31.156Z,7.05
2018-03-25T07:47:00.506Z,6.62
2018-03-25T07:49:28.863Z,6.55
2018-03-25T07:51:57.373Z,6.19
2018-03-25T07:54:25.705Z,6.67
2018-03-25T07:56:54.114Z,7.53
2018-03-25T07:59:22.469Z,7.33
2018-03-25T08:01:51.170Z,7.33
2018-03-25T08:04:19.715Z,7.62
2018-03-25T08:06:48.049Z,7.57
2018-03-25T08:09:16.556Z,7.53
2018-03-25T08:11:44.926Z,7.80
2018-03-25T08:14:13.262Z,8.22
2018-03-25T08:16:41.584Z,7.97
2018-03-25T08:19:09.929Z,8.01
2018-03-25T08:21:38.337Z,7.50
2018-03-25T08:24:07.798Z,7.98
2018-03-25T08:26:36.166Z,8.59
2018-03-25T08:29:04.557Z,8.93
2018-03-25T08:31:33.182Z,8.41
2018-03-25T08:34:01.574Z,8.47
2018-03-25T08:36:29.917Z,8.70
2018-03-25T08:38:58.251Z,9.69
2018-03-25T08:41:26.587Z,9.48
2018-03-25T08:43:54.931Z,9.22
2018-03-25T08:46:23.265Z,10.07
2018-03-25T08:48:51.630Z,9.93
2018-03-25T08:51:19.973Z,8.76
2018-03-25T08:53:48.311Z,9.28
2018-03-25T08:56:16.722Z,10.24
2018-03-25T08:58:45.041Z,9.92
2018-03-25T09:01:13.383Z,9.87
2018-03-25T09:03:43.840Z,9.11
2018-03-25T09:06:12.161Z,9.50
2018-03-25T09:08:40.481Z,9.58
2018-03-25T09:11:09.004Z,10.48
2018-03-25T09:13:44.009Z,10.22
2018-03-25T09:16:15.269Z,10.32
2018-03-25T09:18:43.617Z,10.43
2018-03-25T09:21:12.081Z,10.68
2018-03-25T09:23:40.467Z,9.67
2018-03-25T09:26:08.808Z,10.55
2018-03-25T09:28:37.233Z,10.59
2018-03-25T09:31:05.621Z,10.45
2018-03-25T09:33:34.063Z,10.77
2018-03-25T09:36:02.572Z,11.20
2018-03-25T09:38:30.913Z,11.02
2018-03-25T09:40:59.256Z,10.30
2018-03-25T09:43:27.614Z,9.51
2018-03-25T09:45:55.925Z,9.88
2018-03-25T09:48:24.294Z,10.44
2018-03-25T09:50:52.955Z,10.86
2018-03-25T09:53:21.369Z,10.22
2018-03-25T09:55:49.695Z,10.20
2018-03-25T09:58:18.029Z,10.18
2018-03-25T10:00:49.200Z,9.62
2018-03-25T10:03:23.237Z,9.22
2018-03-25T10:05:51.621Z,9.13
2018-03-25T10:08:19.992Z,9.17
2018-03-25T10:10:48.410Z,10.25
2018-03-25T10:13:16.775Z,10.19
2018-03-25T10:15:45.096Z,10.37
2018-03-25T10:18:13.477Z,10.24
2018-03-25T10:20:41.885Z,9.93
2018-03-25T10:23:10.217Z,10.14
2018-03-25T10:25:38.547Z,9.99
2018-03-25T10:28:06.972Z,10.53
2018-03-25T10:30:35.344Z,10.36
2018-03-25T10:33:03.724Z,10.80
2018-03-25T10:35:32.076Z,10.30
2018-03-25T10:38:00.667Z,10.39
2018-03-25T10:40:29.326Z,10.11
2018-03-25T10:42:57.679Z,10.00
2018-03-25T10:45:26.020Z,10.21
2018-03-25T10:47:54.530Z,10.72
2018-03-25T10:50:22.884Z,10.28
2018-03-25T10:52:51.299Z,10.79
2018-03-25T10:55:19.677Z,10.81
2018-03-25T10:57:48.722Z,11.02
2018-03-25T11:00:17.060Z,11.64
2018-03-25T11:02:45.479Z,11.46
2018-03-25T11:05:13.847Z,11.43
2018-03-25T11:07:42.228Z,11.37
2018-03-25T11:10:10.590Z,10.68
2018-03-25T11:12:39.390Z,10.36
2018-03-25T11:15:07.806Z,10.80
2018-03-25T11:17:36.177Z,11.39
2018-03-25T11:20:04.549Z,11.74
2018-03-25T11:22:32.925Z,11.48
2018-03-25T11:25:01.250Z,11.12
2018-03-25T11:27:29.609Z,11.09
2018-03-25T11:29:58.038Z,11.93
2018-03-25T11:32:26.395Z,10.94
2018-03-25T11:34:54.760Z,11.95
2018-03-25T11:37:23.163Z,11.85
2018-03-25T11:39:51.554Z,11.41
2018-03-25T11:42:19.913Z,11.54
2018-03-25T11:44:48.261Z,11.13
2018-03-25T11:47:16.634Z,11.76
2018-03-25T11:49:45.032Z,11.83
2018-03-25T11:52:13.365Z,11.37
2018-03-25T11:54:41.828Z,11.71
2018-03-25T11:57:10.267Z,12.29
2018-03-25T11:59:38.586Z,12.31
2018-03-25T12:02:06.977Z,11.67
2018-03-25T12:04:35.296Z,11.09
2018-03-25T12:07:03.695Z,10.58
2018-03-25T12:09:32.061Z,10.66
2018-03-25T12:12:00.449Z,11.48
2018-03-25T12:14:28.850Z,11.74
2018-03-25T12:16:57.257Z,12.41
2018-03-25T12:19:25.585Z,12.28
2018-03-25T12:21:53.944Z,12.03
2018-03-25T12:24:22.302Z,12.09
2018-03-25T12:26:50.667Z,11.38
2018-03-25T12:29:18.996Z,11.17
2018-03-25T12:31:47.368Z,11.43
2018-03-25T12:34:15.686Z,11.22
2018-03-25T12:36:44.042Z,11.13
2018-03-25T12:39:12.411Z,11.61
2018-03-25T12:41:40.790Z,12.07
2018-03-25T12:44:09.857Z,12.20
2018-03-25T12:46:38.295Z,12.18
2018-03-25T12:49:06.673Z,12.63
2018-03-25T12:51:35.013Z,12.54
2018-03-25T12:54:03.362Z,12.66
2018-03-25T12:56:31.715Z,11.84
2018-03-25T12:59:00.051Z,12.22
2018-03-25T13:01:28.394Z,11.71
2018-03-25T13:03:56.737Z,11.60
2018-03-25T13:06:25.074Z,11.68
2018-03-25T13:08:53.433Z,11.18
2018-03-25T13:11:22.408Z,11.58
2018-03-25T13:13:50.821Z,11.43
2018-03-25T13:16:19.146Z,11.47
2018-03-25T13:18:47.512Z,12.43
2018-03-25T13:21:16.012Z,12.73
2018-03-25T13:23:44.355Z,12.44
2018-03-25T13:26:12.737Z,12.22
2018-03-25T13:28:41.139Z,11.65
2018-03-25T13:31:09.502Z,12.06
2018-03-25T13:33:37.865Z,12.27
2018-03-25T13:36:06.202Z,11.93
2018-03-25T13:38:34.546Z,12.59
2018-03-25T13:41:02.892Z,12.45
2018-03-25T13:43:31.217Z,12.62
2018-03-25T13:45:59.568Z,12.57
2018-03-25T13:48:27.903Z,12.85
2018-03-25T13:50:56.257Z,12.20
2018-03-25T13:53:24.648Z,12.56
2018-03-25T13:55:53.040Z,13.08
2018-03-25T13:58:21.369Z,12.62
2018-03-25T14:00:49.719Z,12.64
2018-03-25T14:03:18.041Z,12.43
2018-03-25T14:05:46.417Z,12.13
2018-03-25T14:08:14.794Z,12.22
2018-03-25T14:10:43.154Z,12.16
2018-03-25T14:13:11.474Z,12.63
2018-03-25T14:15:39.885Z,12.26
2018-03-25T14:18:08.217Z,12.30
2018-03-25T14:20:36.555Z,11.58
2018-03-25T14:23:04.974Z,11.25
2018-03-25T14:25:33.340Z,10.96
2018-03-25T14:28:01.687Z,11.49
2018-03-25T14:30:30.026Z,11.44
2018-03-25T14:32:58.392Z,11.33
2018-03-25T14:35:26.710Z,11.13
2018-03-25T14:37:55.093Z,11.23
2018-03-25T14:40:23.478Z,10.85
2018-03-25T14:42:51.859Z,11.22
2018-03-25T14:45:20.184Z,10.93
2018-03-25T14:47:48.557Z,11.03
2018-03-25T14:50:16.898Z,11.11
2018-03-25T14:52:45.238Z,10.70
2018-03-25T14:55:13.588Z,10.48
2018-03-25T14:57:41.987Z,10.70
2018-03-25T15:00:10.405Z,11.18
2018-03-25T15:02:38.822Z,11.77
2018-03-25T15:05:07.195Z,11.48
2018-03-25T15:07:35.563Z,11.07
2018-03-25T15:10:03.884Z,10.92
2018-03-25T15:12:32.285Z,11.31
2018-03-25T15:15:00.601Z,11.30
2018-03-25T15:17:29.433Z,10.41
2018-03-25T15:19:57.809Z,10.33
2018-03-25T15:22:26.159Z,10.10
2018-03-25T15:24:54.473Z,10.03
2018-03-25T15:27:22.896Z,9.93
2018-03-25T15:29:51.257Z,10.31
2018-03-25T15:32:19.587Z,10.05
2018-03-25T15:34:48.029Z,9.71
2018-03-25T15:37:16.361Z,9.70
2018-03-25T15:39:44.857Z,9.71
2018-03-25T15:42:13.233Z,9.48
2018-03-25T15:44:41.625Z,9.33
2018-03-25T15:47:10.008Z,9.66
2018-03-25T15:49:40.074Z,9.63
2018-03-25T15:52:08.615Z,9.54
2018-03-25T15:54:36.962Z,9.36
2018-03-25T15:57:05.269Z,9.08
2018-03-25T15:59:33.712Z,9.09
2018-03-25T16:02:02.086Z,8.93
2018-03-25T16:04:30.413Z,9.10
2018-03-25T16:06:58.776Z,9.20
2018-03-25T16:09:27.296Z,9.11
2018-03-25T16:11:55.651Z,8.87
2018-03-25T16:14:23.981Z,8.77
2018-03-25T16:16:52.334Z,8.59
2018-03-25T16:19:20.716Z,8.66
2018-03-25T16:21:49.056Z,8.83
2018-03-25T16:24:17.401Z,8.77
2018-03-25T16:26:45.889Z,8.75
2018-03-25T16:29:14.238Z,8.79
2018-03-25T16:31:43.179Z,8.69
2018-03-25T16:34:11.544Z,8.57
2018-03-25T16:36:40.116Z,8.56
2018-03-25T16:39:08.522Z,8.38
2018-03-25T16:41:37.848Z,8.36
2018-03-25T16:44:06.165Z,8.25
2018-03-25T16:46:34.508Z,8.21
2018-03-25T16:49:02.814Z,8.00
2018-03-25T16:51:31.606Z,7.87
2018-03-25T16:53:59.960Z,7.77
2018-03-25T16:56:28.291Z,7.72
2018-03-25T16:58:56.632Z,7.74
2018-03-25T17:01:25.045Z,7.65
2018-03-25T17:03:53.426Z,7.61
2018-03-25T17:06:21.750Z,7.60
2018-03-25T17:08:50.064Z,7.51
2018-03-25T17:11:18.419Z,7.42
2018-03-25T17:13:46.817Z,7.40
2018-03-25T17:16:15.158Z,7.37
2018-03-25T17:18:43.534Z,7.41
2018-03-25T17:21:11.896Z,7.31
2018-03-25T17:23:40.746Z,7.19
2018-03-25T17:26:09.186Z,7.19
2018-03-25T17:28:37.526Z,7.12
2018-03-25T17:31:05.846Z,7.13
2018-03-25T17:33:34.194Z,7.07
2018-03-25T17:36:02.548Z,7.02
2018-03-25T17:38:30.934Z,6.98
2018-03-25T17:40:59.280Z,6.91
2018-03-25T17:43:27.627Z,6.90
2018-03-25T17:45:55.960Z,6.82
2018-03-25T17:48:24.406Z,6.77
2018-03-25T17:50:52.746Z,6.70
2018-03-25T17:53:21.177Z,6.68
2018-03-25T17:55:49.556Z,6.62
2018-03-25T17:58:17.856Z,6.58
2018-03-25T18:00:46.213Z,6.57
2018-03-25T18:03:14.562Z,6.48
2018-03-25T18:05:42.930Z,6.45
2018-03-25T18:08:11.270Z,6.45
2018-03-25T18:10:39.615Z,6.38
2018-03-25T18:13:07.972Z,6.37
2018-03-25T18:15:36.301Z,6.36
2018-03-25T18:18:04.658Z,6.34
2018-03-25T18:20:32.980Z,6.32
2018-03-25T18:23:01.414Z,6.26
2018-03-25T18:25:29.748Z,6.22
2018-03-25T18:27:58.144Z,6.20
2018-03-25T18:30:26.623Z,6.13
2018-03-25T18:32:55.089Z,6.16
2018-03-25T18:35:23.461Z,6.13
2018-03-25T18:37:51.919Z,5.99
2018-03-25T18:40:20.364Z,5.95
2018-03-25T18:42:48.669Z,5.92
2018-03-25T18:45:16.994Z,5.87
2018-03-25T18:47:45.337Z,5.88
2018-03-25T18:50:13.791Z,5.80
2018-03-25T18:52:42.107Z,5.73
2018-03-25T18:55:10.630Z,5.68
2018-03-25T18:57:39.532Z,5.69
2018-03-25T19:00:12.363Z,5.71
2018-03-25T19:02:43.571Z,5.65
2018-03-25T19:05:12.160Z,5.60
2018-03-25T19:07:43.234Z,5.58
2018-03-25T19:10:11.888Z,5.58
2018-03-25T19:12:42.041Z,5.57
2018-03-25T19:15:11.805Z,5.51
2018-03-25T19:17:40.338Z,5.47
2018-03-25T19:20:11.940Z,5.45
2018-03-25T19:22:43.546Z,5.50
2018-03-25T19:25:14.266Z,5.47
2018-03-25T19:27:43.359Z,5.41
2018-03-25T19:30:13.941Z,5.38
2018-03-25T19:32:42.489Z,5.37
2018-03-25T19:35:15.072Z,5.34
2018-03-25T19:37:50.466Z,5.33
2018-03-25T19:40:20.236Z,5.23
2018-03-25T19:42:51.115Z,5.17
2018-03-25T19:45:24.900Z,5.14
2018-03-25T19:47:56.433Z,5.08
2018-03-25T19:50:27.163Z,5.03
2018-03-25T19:52:58.906Z,5.01
2018-03-25T19:55:30.319Z,4.88
2018-03-25T19:58:01.489Z,4.66
2018-03-25T20:00:30.556Z,4.48
2018-03-25T20:03:01.543Z,4.43
2018-03-25T20:05:31.354Z,4.54
2018-03-25T20:08:07.442Z,4.64
2018-03-25T20:10:43.300Z,4.74
2018-03-25T20:13:16.248Z,4.53
2018-03-25T20:15:47.609Z,4.45
2018-03-25T20:18:16.095Z,4.29
2018-03-25T20:20:49.544Z,4.09
2018-03-25T20:23:22.770Z,4.15
2018-03-25T20:25:55.444Z,4.08
2018-03-25T20:28:25.074Z,3.92
2018-03-25T20:30:54.232Z,3.72
2018-03-25T20:33:22.774Z,3.64
2018-03-25T20:35:51.900Z,3.57
2018-03-25T20:38:20.893Z,3.46
2018-03-25T20:40:49.504Z,3.41
2018-03-25T20:43:18.321Z,3.27
2018-03-25T20:45:47.055Z,3.27
2018-03-25T20:48:16.328Z,3.22
2018-03-25T20:50:45.905Z,3.16
2018-03-25T20:53:14.471Z,3.07
2018-03-25T20:55:42.846Z,3.06
2018-03-25T20:58:12.354Z,3.04
2018-03-25T21:00:42.065Z,3.14
2018-03-25T21:03:12.904Z,3.07
2018-03-25T21:05:42.047Z,3.01
2018-03-25T21:08:11.189Z,2.91
2018-03-25T21:10:39.681Z,2.81
2018-03-25T21:13:08.370Z,2.75
2018-03-25T21:15:38.684Z,2.68
2018-03-25T21:18:07.320Z,2.65
2018-03-25T21:20:36.860Z,2.59
2018-03-25T21:23:06.050Z,2.50
2018-03-25T21:25:37.443Z,2.46
2018-03-25T21:28:08.114Z,2.40
2018-03-25T21:30:36.653Z,2.36
2018-03-25T21:33:06.561Z,2.34
2018-03-25T21:35:37.458Z,2.33
2018-03-25T21:38:05.879Z,2.29
2018-03-25T21:40:35.095Z,2.28
2018-03-25T21:43:04.201Z,2.22
2018-03-25T21:45:34.678Z,2.19
2018-03-25T21:48:03.227Z,2.17
2018-03-25T21:50:32.848Z,2.15
2018-03-25T21:53:01.452Z,2.10
2018-03-25T21:55:30.565Z,2.09
2018-03-25T21:57:59.363Z,2.08
2018-03-25T22:00:28.075Z,2.03
2018-03-25T22:02:57.853Z,2.01
2018-03-25T22:05:28.444Z,2.02
2018-03-25T22:07:57.380Z,1.98
2018-03-25T22:10:27.820Z,1.94
2018-03-25T22:12:57.206Z,1.92
2018-03-25T22:15:26.412Z,1.88
2018-03-25T22:17:55.111Z,1.87
2018-03-25T22:20:24.219Z,2.01
2018-03-25T22:22:53.275Z,1.91
2018-03-25T22:25:22.986Z,1.85
2018-03-25T22:27:51.758Z,1.83
2018-03-25T22:30:21.965Z,1.83
2018-03-25T22:32:50.580Z,1.72
2018-03-25T22:35:19.558Z,1.75
2018-03-25T22:37:49.733Z,1.81
2018-03-25T22:40:19.297Z,1.89
2018-03-25T22:42:48.280Z,1.87
2018-03-25T22:45:16.749Z,1.89
2018-03-25T22:47:46.846Z,1.99
2018-03-25T22:50:18.060Z,2.08
2018-03-25T22:52:46.522Z,2.07
2018-03-25T22:55:15.186Z,2.00
2018-03-25T22:57:44.129Z,1.93
2018-03-25T23:00:13.512Z,1.93
2018-03-25T23:02:41.952Z,1.96
2018-03-25T23:05:14.204Z,1.93
2018-03-25T23:07:42.637Z,1.99
2018-03-25T23:10:11.089Z,1.96
2018-03-25T23:12:40.907Z,1.89
2018-03-25T23:15:09.939Z,1.82
2018-03-25T23:17:40.830Z,1.75
2018-03-25T23:20:12.326Z,1.74
2018-03-25T23:22:43.748Z,1.79
2018-03-25T23:25:15.436Z,1.79
2018-03-25T23:27:44.486Z,1.89
2018-03-25T23:30:14.738Z,1.93
2018-03-25T23:32:44.213Z,2.00
2018-03-25T23:35:12.722Z,2.10
2018-03-25T23:37:41.227Z,2.17
2018-03-25T23:40:11.302Z,2.16
2018-03-25T23:42:39.960Z,2.31
2018-03-25T23:45:08.396Z,2.29
2018-03-25T23:47:36.963Z,2.40
2018-03-25T23:50:06.367Z,2.39
2018-03-25T23:52:37.907Z,2.45
2018-03-25T23:55:07.187Z,2.48
2018-03-25T23:57:35.739Z,2.57
